Terminal Aerodrome Forecast
Issued by NWS

Home | Current Version | Previous Version | Text Only | Print | Product List | Glossary On
Versions: 1 2 3 4 5 6 7 8 9 10 11 12 13 14
000
FTUS43 KGRR 241523 AAA
TAFJXN
TAF AMD
KJXN 241523Z 2415/2512 18009KT P6SM VCSH BKN100
     FM250300 13006KT P6SM BKN050
     FM251000 16005KT 6SM BR BKN070=

USA.gov is the U.S. government's official web portal to all federal, state and local government web resources and services.